createdAt,value
2018-02-14T00:01:58.908Z,101208.17
2018-02-14T00:04:26.384Z,101216.28
2018-02-14T00:06:53.937Z,101223.13
2018-02-14T00:09:21.404Z,101222.09
2018-02-14T00:11:49.021Z,101223.42
2018-02-14T00:14:16.483Z,101225.79
2018-02-14T00:16:43.966Z,101229.23
2018-02-14T00:19:11.629Z,101229.70
2018-02-14T00:21:39.086Z,101234.59
2018-02-14T00:24:06.595Z,101233.00
2018-02-14T00:26:34.077Z,101233.41
2018-02-14T00:29:01.538Z,101241.72
2018-02-14T00:31:28.990Z,101234.03
2018-02-14T00:33:56.498Z,101239.19
2018-02-14T00:36:24.037Z,101239.98
2018-02-14T00:38:51.594Z,101249.07
2018-02-14T00:41:19.061Z,101247.11
2018-02-14T00:43:46.523Z,101249.55
2018-02-14T00:46:14.005Z,101247.61
2018-02-14T00:48:41.526Z,101251.09
2018-02-14T00:51:09.035Z,101250.81
2018-02-14T00:53:36.512Z,101249.83
2018-02-14T00:56:04.001Z,101256.25
2018-02-14T00:58:31.455Z,101255.20
2018-02-14T01:00:58.910Z,101260.73
2018-02-14T01:03:26.394Z,101259.19
2018-02-14T01:05:53.857Z,101255.69
2018-02-14T01:08:21.329Z,101263.66
2018-02-14T01:10:48.804Z,101255.91
2018-02-14T01:13:16.267Z,101256.66
2018-02-14T01:15:43.721Z,101260.50
2018-02-14T01:18:11.331Z,101258.54
2018-02-14T01:20:44.646Z,101258.33
2018-02-14T01:23:12.115Z,101260.69
2018-02-14T01:25:39.610Z,101261.09
2018-02-14T01:28:07.075Z,101261.39
2018-02-14T01:30:34.551Z,101264.98
2018-02-14T01:33:02.036Z,101267.47
2018-02-14T01:35:29.569Z,101271.10
2018-02-14T01:37:57.029Z,101267.64
2018-02-14T01:40:24.497Z,101268.91
2018-02-14T01:42:51.989Z,101269.82
2018-02-14T01:45:19.454Z,101269.60
2018-02-14T01:47:46.919Z,101266.97
2018-02-14T01:50:14.402Z,101267.59
2018-02-14T01:52:41.961Z,101260.19
2018-02-14T01:55:09.523Z,101273.39
2018-02-14T01:57:37.002Z,101266.05
2018-02-14T02:00:04.454Z,101268.77
2018-02-14T02:02:31.996Z,101270.10
2018-02-14T02:04:59.456Z,101269.47
2018-02-14T02:07:26.951Z,101271.48
2018-02-14T02:09:54.413Z,101269.23
2018-02-14T02:12:21.877Z,101271.37
2018-02-14T02:14:49.353Z,101273.58
2018-02-14T02:17:16.810Z,101276.36
2018-02-14T02:19:44.319Z,101276.77
2018-02-14T02:22:11.782Z,101279.70
2018-02-14T02:24:39.241Z,101276.70
2018-02-14T02:27:06.714Z,101274.09
2018-02-14T02:29:34.175Z,101272.23
2018-02-14T02:32:01.674Z,101271.86
2018-02-14T02:34:29.147Z,101274.59
2018-02-14T02:36:56.617Z,101273.19
2018-02-14T02:39:36.049Z,101274.47
2018-02-14T02:42:03.526Z,101282.89
2018-02-14T02:44:30.984Z,101276.83
2018-02-14T02:46:58.495Z,101282.45
2018-02-14T02:49:25.959Z,101283.78
2018-02-14T02:51:53.532Z,101284.34
2018-02-14T02:54:21.036Z,101282.80
2018-02-14T02:56:48.498Z,101285.95
2018-02-14T02:59:15.957Z,101287.27
2018-02-14T03:01:43.443Z,101284.81
2018-02-14T03:04:10.906Z,101288.24
2018-02-14T03:06:38.384Z,101286.28
2018-02-14T03:09:06.035Z,101293.33
2018-02-14T03:11:33.493Z,101290.00
2018-02-14T03:14:00.954Z,101297.13
2018-02-14T03:16:28.510Z,101292.38
2018-02-14T03:18:55.977Z,101298.19
2018-02-14T03:21:23.439Z,101295.53
2018-02-14T03:23:50.948Z,101308.34
2018-02-14T03:26:18.406Z,101306.75
2018-02-14T03:28:45.890Z,101306.68
2018-02-14T03:31:13.346Z,101307.66
2018-02-14T03:33:40.810Z,101313.39
2018-02-14T03:36:08.374Z,101314.64
2018-02-14T03:38:36.027Z,101322.06
2018-02-14T03:41:03.491Z,101313.61
2018-02-14T03:43:30.996Z,101312.14
2018-02-14T03:45:58.477Z,101324.46
2018-02-14T03:48:25.946Z,101325.79
2018-02-14T03:50:53.406Z,101328.09
2018-02-14T03:53:21.123Z,101323.62
2018-02-14T03:55:48.582Z,101327.30
2018-02-14T03:58:16.049Z,101329.92
2018-02-14T04:00:43.647Z,101331.85
2018-02-14T04:03:11.154Z,101337.27
2018-02-14T04:05:38.627Z,101341.10
2018-02-14T04:08:06.126Z,101345.16
2018-02-14T04:10:33.590Z,101347.02
2018-02-14T04:13:01.042Z,101351.91
2018-02-14T04:15:28.566Z,101350.23
2018-02-14T04:17:56.039Z,101352.63
2018-02-14T04:20:23.496Z,101354.63
2018-02-14T04:22:51.006Z,101351.33
2018-02-14T04:25:18.474Z,101360.77
2018-02-14T04:27:45.933Z,101362.55
2018-02-14T04:30:19.285Z,101369.73
2018-02-14T04:32:46.754Z,101369.73
2018-02-14T04:35:14.215Z,101373.34
2018-02-14T04:37:41.703Z,101375.05
2018-02-14T04:40:09.167Z,101375.05
2018-02-14T04:42:36.628Z,101375.77
2018-02-14T04:45:04.106Z,101376.04
2018-02-14T04:47:31.569Z,101370.73
2018-02-14T04:49:59.041Z,101376.50
2018-02-14T04:52:26.498Z,101380.29
2018-02-14T04:54:53.957Z,101383.13
2018-02-14T04:57:21.474Z,101386.92
2018-02-14T04:59:48.933Z,101382.02
2018-02-14T05:02:16.402Z,101383.73
2018-02-14T05:04:43.998Z,101385.66
2018-02-14T05:07:11.490Z,101385.56
2018-02-14T05:09:38.949Z,101387.08
2018-02-14T05:12:06.483Z,101389.13
2018-02-14T05:14:34.014Z,101394.49
2018-02-14T05:17:01.521Z,101399.14
2018-02-14T05:19:28.998Z,101392.70
2018-02-14T05:21:56.535Z,101399.33
2018-02-14T05:24:23.995Z,101396.86
2018-02-14T05:26:51.478Z,101397.65
2018-02-14T05:29:18.938Z,101400.79
2018-02-14T05:31:46.394Z,101408.67
2018-02-14T05:34:13.866Z,101404.39
2018-02-14T05:36:41.347Z,101412.06
2018-02-14T05:39:08.812Z,101409.41
2018-02-14T05:41:36.378Z,101414.72
2018-02-14T05:44:03.854Z,101418.37
2018-02-14T05:46:31.318Z,101423.67
2018-02-14T05:48:58.824Z,101425.38
2018-02-14T05:51:26.281Z,101427.95
2018-02-14T05:53:53.750Z,101430.19
2018-02-14T05:56:21.225Z,101432.91
2018-02-14T05:58:48.750Z,101438.62
2018-02-14T06:01:16.277Z,101442.53
2018-02-14T06:03:43.751Z,101442.77
2018-02-14T06:06:11.210Z,101441.20
2018-02-14T06:08:38.685Z,101449.38
2018-02-14T06:11:06.173Z,101449.15
2018-02-14T06:13:33.702Z,101455.50
2018-02-14T06:16:01.161Z,101453.02
2018-02-14T06:18:28.648Z,101462.34
2018-02-14T06:20:56.112Z,101472.11
2018-02-14T06:23:23.579Z,101468.80
2018-02-14T06:25:51.074Z,101472.66
2018-02-14T06:28:18.526Z,101473.31
2018-02-14T06:30:45.984Z,101472.34
2018-02-14T06:33:13.494Z,101468.11
2018-02-14T06:35:40.979Z,101477.20
2018-02-14T06:38:08.442Z,101476.38
2018-02-14T06:40:35.922Z,101477.58
2018-02-14T06:43:03.387Z,101481.45
2018-02-14T06:45:30.859Z,101479.14
2018-02-14T06:47:58.345Z,101488.66
2018-02-14T06:50:25.821Z,101490.23
2018-02-14T06:55:31.424Z,101490.34
2018-02-14T06:57:58.988Z,101498.30
2018-02-14T07:00:26.451Z,101500.55
2018-02-14T07:02:53.960Z,101504.75
2018-02-14T07:05:21.439Z,101506.69
2018-02-14T07:07:48.901Z,101513.61
2018-02-14T07:10:16.470Z,101513.38
2018-02-14T07:12:43.927Z,101516.64
2018-02-14T07:15:11.492Z,101515.97
2018-02-14T07:17:38.998Z,101518.67
2018-02-14T07:20:06.460Z,101523.20
2018-02-14T07:22:33.918Z,101524.50
2018-02-14T07:25:01.402Z,101527.02
2018-02-14T07:27:28.883Z,101532.14
2018-02-14T07:29:56.355Z,101535.03
2018-02-14T07:32:23.940Z,101533.15
2018-02-14T07:34:51.412Z,101534.52
2018-02-14T07:37:18.878Z,101540.60
2018-02-14T07:39:46.383Z,101532.16
2018-02-14T07:42:13.858Z,101536.53
2018-02-14T07:44:41.320Z,101533.61
2018-02-14T07:47:08.793Z,101539.12
2018-02-14T07:49:36.294Z,101534.56
2018-02-14T07:52:03.749Z,101540.55
2018-02-14T07:54:31.208Z,101542.30
2018-02-14T07:56:58.768Z,101551.48
2018-02-14T07:59:26.226Z,101553.02
2018-02-14T08:01:53.730Z,101555.10
2018-02-14T08:04:21.223Z,101557.82
2018-02-14T08:06:48.687Z,101561.27
2018-02-14T08:09:16.177Z,101561.12
2018-02-14T08:11:43.656Z,101558.09
2018-02-14T08:14:11.117Z,101558.94
2018-02-14T08:16:38.635Z,101557.33
2018-02-14T08:19:06.153Z,101559.20
2018-02-14T08:21:33.618Z,101564.06
2018-02-14T08:24:01.114Z,101562.44
2018-02-14T08:26:28.661Z,101569.41
2018-02-14T08:28:56.229Z,101567.09
2018-02-14T08:31:23.985Z,101576.13
2018-02-14T08:33:51.732Z,101575.19
2018-02-14T08:36:19.196Z,101572.86
2018-02-14T08:38:46.764Z,101572.87
2018-02-14T08:41:14.224Z,101565.39
2018-02-14T08:43:41.691Z,101566.41
2018-02-14T08:46:09.178Z,101561.71
2018-02-14T08:48:36.634Z,101559.13
2018-02-14T08:51:04.106Z,101562.34
2018-02-14T08:53:31.609Z,101566.14
2018-02-14T08:55:59.114Z,101568.59
2018-02-14T08:58:26.629Z,101568.30
2018-02-14T09:00:54.182Z,101571.53
2018-02-14T09:03:21.641Z,101578.81
2018-02-14T09:05:49.130Z,101579.72
2018-02-14T09:08:16.581Z,101583.78
2018-02-14T09:10:44.039Z,101576.11
2018-02-14T09:13:11.550Z,101586.33
2018-02-14T09:15:39.010Z,101592.83
2018-02-14T09:18:06.466Z,101597.64
2018-02-14T09:20:33.940Z,101604.89
2018-02-14T09:23:01.390Z,101602.97
2018-02-14T09:25:28.846Z,101597.23
2018-02-14T09:27:56.421Z,101604.02
2018-02-14T09:30:23.873Z,101602.69
2018-02-14T09:32:51.326Z,101601.80
2018-02-14T09:35:18.960Z,101609.09
2018-02-14T09:37:46.476Z,101604.75
2018-02-14T09:40:13.930Z,101608.06
2018-02-14T09:42:41.401Z,101612.17
2018-02-14T09:45:08.857Z,101619.87
2018-02-14T09:47:36.458Z,101615.47
2018-02-14T09:50:03.922Z,101616.73
2018-02-14T09:52:31.378Z,101613.83
2018-02-14T09:54:58.860Z,101620.67
2018-02-14T09:57:26.327Z,101622.61
2018-02-14T09:59:53.813Z,101620.15
2018-02-14T10:02:21.302Z,101621.66
2018-02-14T10:04:48.781Z,101624.73
2018-02-14T10:07:16.238Z,101634.59
2018-02-14T10:09:43.722Z,101632.31
2018-02-14T10:12:11.262Z,101631.41
2018-02-14T10:14:38.810Z,101632.65
2018-02-14T10:17:06.276Z,101632.31
2018-02-14T10:19:33.733Z,101635.77
2018-02-14T10:22:01.238Z,101637.67
2018-02-14T10:24:28.746Z,101639.77
2018-02-14T10:26:56.218Z,101641.70
2018-02-14T10:29:23.866Z,101632.78
2018-02-14T10:31:51.426Z,101639.27
2018-02-14T10:34:19.004Z,101634.55
2018-02-14T10:36:46.500Z,101635.33
2018-02-14T10:39:13.958Z,101635.92
2018-02-14T10:41:41.413Z,101637.64
2018-02-14T10:44:08.882Z,101640.22
2018-02-14T10:46:36.355Z,101637.61
2018-02-14T10:49:03.939Z,101647.10
2018-02-14T10:51:31.431Z,101646.75
2018-02-14T10:53:58.890Z,101649.28
2018-02-14T10:56:26.486Z,101651.28
2018-02-14T10:58:53.942Z,101651.52
2018-02-14T11:01:26.993Z,101649.02
2018-02-14T11:03:54.462Z,101642.88
2018-02-14T11:06:27.650Z,101650.84
2018-02-14T11:08:55.129Z,101649.56
2018-02-14T11:11:22.599Z,101644.80
2018-02-14T11:13:50.089Z,101644.11
2018-02-14T11:16:17.631Z,101639.30
2018-02-14T11:18:45.097Z,101635.70
2018-02-14T11:21:12.649Z,101643.47
2018-02-14T11:23:40.302Z,101632.66
2018-02-14T11:26:07.754Z,101628.58
2018-02-14T11:28:35.211Z,101634.09
2018-02-14T11:31:02.698Z,101625.39
2018-02-14T11:33:30.153Z,101626.90
2018-02-14T11:35:57.658Z,101630.34
2018-02-14T11:38:25.125Z,101634.72
2018-02-14T11:40:52.605Z,101627.08
2018-02-14T11:43:20.074Z,101622.14
2018-02-14T11:45:47.566Z,101627.91
2018-02-14T11:48:15.066Z,101627.69
2018-02-14T11:50:42.527Z,101629.54
2018-02-14T11:53:10.147Z,101632.34
2018-02-14T11:55:37.761Z,101630.98
2018-02-14T11:58:05.223Z,101635.05
2018-02-14T12:00:32.688Z,101638.67
2018-02-14T12:03:00.189Z,101641.26
2018-02-14T12:05:27.642Z,101636.47
2018-02-14T12:07:55.117Z,101637.58
2018-02-14T12:10:22.623Z,101640.50
2018-02-14T12:12:50.093Z,101639.33
2018-02-14T12:15:17.554Z,101635.23
2018-02-14T12:17:45.211Z,101633.86
2018-02-14T12:20:12.680Z,101636.48
2018-02-14T12:22:40.155Z,101637.23
2018-02-14T12:25:07.808Z,101633.36
2018-02-14T12:27:35.312Z,101632.61
2018-02-14T12:30:02.770Z,101633.30
2018-02-14T12:32:30.277Z,101635.06
2018-02-14T12:34:57.801Z,101626.82
2018-02-14T12:37:25.288Z,101630.84
2018-02-14T12:39:52.897Z,101628.08
2018-02-14T12:42:20.346Z,101628.23
2018-02-14T12:44:47.806Z,101620.85
2018-02-14T12:47:15.327Z,101624.72
2018-02-14T12:49:42.793Z,101632.52
2018-02-14T12:52:10.254Z,101629.18
2018-02-14T12:54:37.756Z,101634.80
2018-02-14T12:57:05.206Z,101629.93
2018-02-14T12:59:32.658Z,101629.77
2018-02-14T13:02:00.233Z,101633.28
2018-02-14T13:04:27.786Z,101633.25
2018-02-14T13:06:55.246Z,101626.67
2018-02-14T13:09:22.906Z,101637.14
2018-02-14T13:11:50.371Z,101636.41
2018-02-14T13:14:17.827Z,101641.70
2018-02-14T13:16:45.309Z,101640.41
2018-02-14T13:19:12.783Z,101641.80
2018-02-14T13:21:40.239Z,101636.36
2018-02-14T13:24:07.722Z,101642.16
2018-02-14T13:26:35.174Z,101633.11
2018-02-14T13:29:02.667Z,101639.94
2018-02-14T13:31:30.130Z,101628.52
2018-02-14T13:33:57.589Z,101629.73
2018-02-14T13:36:25.183Z,101623.44
2018-02-14T13:38:52.649Z,101623.25
2018-02-14T13:41:20.106Z,101623.22
2018-02-14T13:43:47.577Z,101623.16
2018-02-14T13:46:15.030Z,101622.13
2018-02-14T13:48:42.497Z,101620.27
2018-02-14T13:51:09.974Z,101614.89
2018-02-14T13:53:37.424Z,101616.63
2018-02-14T13:56:04.891Z,101604.66
2018-02-14T13:58:32.381Z,101616.89
2018-02-14T14:00:59.910Z,101619.84
2018-02-14T14:03:27.366Z,101616.42
2018-02-14T14:05:54.962Z,101615.25
2018-02-14T14:08:22.429Z,101616.84
2018-02-14T14:10:49.938Z,101616.93
2018-02-14T14:13:17.426Z,101620.17
2018-02-14T14:15:44.881Z,101621.04
2018-02-14T14:18:12.410Z,101629.15
2018-02-14T14:20:40.084Z,101624.53
2018-02-14T14:23:07.547Z,101632.85
2018-02-14T14:25:35.002Z,101638.33
2018-02-14T14:28:02.467Z,101640.41
2018-02-14T14:30:29.915Z,101648.73
2018-02-14T14:32:57.389Z,101647.12
2018-02-14T14:35:24.918Z,101646.36
2018-02-14T14:37:52.371Z,101645.36
2018-02-14T14:40:19.850Z,101652.95
2018-02-14T14:42:47.306Z,101652.62
2018-02-14T14:45:14.865Z,101651.20
2018-02-14T14:47:42.362Z,101655.70
2018-02-14T14:50:09.828Z,101657.70
2018-02-14T14:52:37.287Z,101659.33
2018-02-14T14:55:04.792Z,101662.16
2018-02-14T14:57:32.340Z,101668.89
2018-02-14T14:59:59.807Z,101667.50
2018-02-14T15:02:27.316Z,101670.34
2018-02-14T15:04:54.774Z,101672.30
2018-02-14T15:07:22.483Z,101673.81
2018-02-14T15:09:49.977Z,101679.86
2018-02-14T15:12:17.437Z,101676.41
2018-02-14T15:14:44.969Z,101682.49
2018-02-14T15:17:12.441Z,101684.61
2018-02-14T15:19:39.893Z,101685.00
2018-02-14T15:22:07.388Z,101680.65
2018-02-14T15:24:34.838Z,101681.45
2018-02-14T15:27:02.325Z,101677.48
2018-02-14T15:29:29.793Z,101685.11
2018-02-14T15:31:57.292Z,101688.39
2018-02-14T15:34:24.818Z,101690.05
2018-02-14T15:36:52.278Z,101692.14
2018-02-14T15:39:19.830Z,101692.22
2018-02-14T15:41:47.558Z,101698.92
2018-02-14T15:44:15.037Z,101695.88
2018-02-14T15:46:42.512Z,101692.52
2018-02-14T15:49:10.075Z,101699.59
2018-02-14T15:51:37.587Z,101688.59
2018-02-14T15:54:05.046Z,101693.73
2018-02-14T15:56:32.500Z,101694.34
2018-02-14T15:59:00.118Z,101702.33
2018-02-14T16:01:27.580Z,101697.58
2018-02-14T16:03:55.066Z,101693.59
2018-02-14T16:06:22.535Z,101698.44
2018-02-14T16:08:49.994Z,101701.09
2018-02-14T16:11:17.493Z,101698.92
2018-02-14T16:13:45.049Z,101696.14
2018-02-14T16:16:12.611Z,101700.78
2018-02-14T16:18:40.066Z,101707.03
2018-02-14T16:21:07.625Z,101709.05
2018-02-14T16:23:35.078Z,101710.64
2018-02-14T16:26:02.526Z,101710.56
2018-02-14T16:28:30.102Z,101709.52
2018-02-14T16:30:57.658Z,101713.23
2018-02-14T16:33:25.116Z,101717.38
2018-02-14T16:35:52.586Z,101717.98
2018-02-14T16:38:20.153Z,101712.36
2018-02-14T16:40:47.622Z,101716.19
2018-02-14T16:43:15.083Z,101721.58
2018-02-14T16:45:42.538Z,101715.06
2018-02-14T16:48:10.036Z,101714.19
2018-02-14T16:50:37.494Z,101720.26
2018-02-14T16:53:04.954Z,101717.09
2018-02-14T16:55:32.640Z,101713.52
2018-02-14T16:58:00.107Z,101711.91
2018-02-14T17:00:27.561Z,101711.16
2018-02-14T17:02:55.065Z,101711.47
2018-02-14T17:05:22.523Z,101712.32
2018-02-14T17:07:49.981Z,101715.77
2018-02-14T17:10:17.577Z,101715.92
2018-02-14T17:12:45.034Z,101718.31
2018-02-14T17:15:12.491Z,101727.78
2018-02-14T17:17:39.966Z,101730.32
2018-02-14T17:20:07.421Z,101746.05
2018-02-14T17:22:34.961Z,101743.88
2018-02-14T17:25:02.406Z,101743.25
2018-02-14T17:27:29.875Z,101748.79
2018-02-14T17:29:57.444Z,101751.24
2018-02-14T17:32:25.001Z,101754.87
2018-02-14T17:34:52.457Z,101757.11
2018-02-14T17:37:20.060Z,101759.85
2018-02-14T17:39:47.519Z,101765.43
2018-02-14T17:42:14.970Z,101763.47
2018-02-14T17:44:42.457Z,101762.54
2018-02-14T17:47:09.918Z,101761.59
2018-02-14T17:49:37.370Z,101769.77
2018-02-14T17:52:04.891Z,101770.47
2018-02-14T17:54:32.349Z,101769.83
2018-02-14T17:56:59.818Z,101771.00
2018-02-14T17:59:27.309Z,101769.48
2018-02-14T18:01:54.944Z,101772.53
2018-02-14T18:04:22.760Z,101768.76
2018-02-14T18:06:50.215Z,101774.73
2018-02-14T18:09:17.684Z,101769.28
2018-02-14T18:11:45.283Z,101769.06
2018-02-14T18:14:12.905Z,101777.86
2018-02-14T18:16:40.559Z,101778.41
2018-02-14T18:19:08.097Z,101779.41
2018-02-14T18:21:35.543Z,101775.53
2018-02-14T18:24:03.048Z,101779.80
2018-02-14T18:26:30.507Z,101779.89
2018-02-14T18:28:57.997Z,101782.47
2018-02-14T18:31:25.524Z,101784.04
2018-02-14T18:33:53.003Z,101786.81
2018-02-14T18:36:20.618Z,101788.98
2018-02-14T18:38:48.093Z,101798.30
2018-02-14T18:41:15.558Z,101794.76
2018-02-14T18:43:43.027Z,101791.56
2018-02-14T18:46:10.555Z,101801.60
2018-02-14T18:48:38.014Z,101805.25
2018-02-14T18:51:05.502Z,101803.11
2018-02-14T18:53:32.988Z,101810.13
2018-02-14T18:56:00.446Z,101811.45
2018-02-14T18:58:28.154Z,101808.17
2018-02-14T19:00:55.708Z,101809.99
2018-02-14T19:03:23.178Z,101800.47
2018-02-14T19:05:50.684Z,101804.83
2018-02-14T19:08:18.137Z,101800.54
2018-02-14T19:10:45.602Z,101803.64
2018-02-14T19:13:13.298Z,101806.77
2018-02-14T19:15:40.762Z,101811.91
2018-02-14T19:18:08.402Z,101807.28
2018-02-14T19:20:35.916Z,101816.45
2018-02-14T19:23:03.386Z,101819.25
2018-02-14T19:25:30.851Z,101815.91
2018-02-14T19:27:58.556Z,101823.87
2018-02-14T19:30:26.114Z,101825.39
2018-02-14T19:32:53.579Z,101831.61
2018-02-14T19:35:21.126Z,101826.83
2018-02-14T19:37:48.584Z,101829.62
2018-02-14T19:40:16.051Z,101830.88
2018-02-14T19:42:43.554Z,101832.89
2018-02-14T19:45:11.020Z,101840.30
2018-02-14T19:47:38.512Z,101837.36
2018-02-14T19:50:06.023Z,101837.91
2018-02-14T19:52:33.545Z,101840.61
2018-02-14T19:55:01.007Z,101845.94
2018-02-14T19:57:28.502Z,101849.91
2018-02-14T19:59:55.990Z,101847.16
2018-02-14T20:02:23.452Z,101853.10
2018-02-14T20:04:50.954Z,101852.79
2018-02-14T20:07:18.444Z,101849.93
2018-02-14T20:09:45.941Z,101845.17
2018-02-14T20:12:13.595Z,101842.27
2018-02-14T20:14:41.050Z,101846.95
2018-02-14T20:17:08.523Z,101842.00
2018-02-14T20:19:36.034Z,101846.36
2018-02-14T20:22:03.493Z,101843.78
2018-02-14T20:24:30.962Z,101842.94
2018-02-14T20:26:58.587Z,101843.08
2018-02-14T20:29:26.112Z,101843.45
2018-02-14T20:31:53.619Z,101838.19
2018-02-14T20:34:21.107Z,101842.27
2018-02-14T20:36:48.680Z,101837.11
2018-02-14T20:39:16.172Z,101842.42
2018-02-14T20:41:43.648Z,101837.18
2018-02-14T20:44:11.110Z,101840.96
2018-02-14T20:46:38.606Z,101832.05
2018-02-14T20:49:06.064Z,101837.72
2018-02-14T20:51:33.627Z,101835.70
2018-02-14T20:54:01.142Z,101831.73
2018-02-14T20:56:28.609Z,101836.74
2018-02-14T20:58:56.116Z,101844.30
2018-02-14T21:01:23.605Z,101843.83
2018-02-14T21:03:51.114Z,101847.43
2018-02-14T21:06:18.679Z,101845.38
2018-02-14T21:08:46.238Z,101845.39
2018-02-14T21:11:13.708Z,101841.52
2018-02-14T21:13:41.161Z,101846.95
2018-02-14T21:16:08.630Z,101851.30
2018-02-14T21:18:36.110Z,101845.19
2018-02-14T21:21:03.770Z,101849.36
2018-02-14T21:23:31.243Z,101844.98
2018-02-14T21:25:58.790Z,101851.38
2018-02-14T21:28:26.270Z,101848.10
2018-02-14T21:30:53.749Z,101851.23
2018-02-14T21:33:21.246Z,101849.87
2018-02-14T21:35:48.725Z,101847.01
2018-02-14T21:38:16.192Z,101848.10
2018-02-14T21:40:43.691Z,101842.80
2018-02-14T21:43:11.152Z,101844.35
2018-02-14T21:45:38.613Z,101843.73
2018-02-14T21:48:06.113Z,101836.92
2018-02-14T21:50:33.585Z,101840.69
2018-02-14T21:53:01.043Z,101840.73
2018-02-14T21:55:28.532Z,101842.54
2018-02-14T21:57:56.092Z,101846.36
2018-02-14T22:00:23.574Z,101844.84
2018-02-14T22:02:51.112Z,101843.17
2018-02-14T22:05:18.577Z,101845.25
2018-02-14T22:07:46.036Z,101835.84
2018-02-14T22:10:13.526Z,101840.17
2018-02-14T22:12:40.994Z,101833.33
2018-02-14T22:15:08.494Z,101827.48
2018-02-14T22:17:35.976Z,101826.95
2018-02-14T22:20:03.452Z,101821.52
2018-02-14T22:22:30.919Z,101816.83
2018-02-14T22:24:58.403Z,101807.50
2018-02-14T22:27:25.870Z,101807.23
2018-02-14T22:29:53.342Z,101805.88
2018-02-14T22:32:20.817Z,101798.53
2018-02-14T22:34:48.274Z,101801.97
2018-02-14T22:37:15.733Z,101798.70
2018-02-14T22:39:43.231Z,101803.80
2018-02-14T22:42:10.730Z,101808.86
2018-02-14T22:44:38.224Z,101812.17
2018-02-14T22:47:05.687Z,101805.65
2018-02-14T22:49:33.149Z,101805.63
2018-02-14T22:52:00.659Z,101809.13
2018-02-14T22:54:28.236Z,101815.55
2018-02-14T22:56:55.700Z,101824.34
2018-02-14T22:59:23.211Z,101813.00
2018-02-14T23:01:50.671Z,101816.59
2018-02-14T23:04:18.130Z,101813.24
2018-02-14T23:06:45.615Z,101808.23
2018-02-14T23:09:13.169Z,101815.09
2018-02-14T23:11:40.643Z,101813.92
2018-02-14T23:14:08.145Z,101810.23
2018-02-14T23:16:35.634Z,101810.34
2018-02-14T23:19:03.096Z,101808.81
2018-02-14T23:21:30.594Z,101810.55
2018-02-14T23:23:58.071Z,101805.59
2018-02-14T23:26:25.612Z,101799.03
2018-02-14T23:28:53.091Z,101799.90
2018-02-14T23:31:20.553Z,101799.55
2018-02-14T23:33:48.046Z,101791.89
2018-02-14T23:36:15.596Z,101795.87
2018-02-14T23:38:43.059Z,101795.87
2018-02-14T23:41:10.545Z,101788.83
2018-02-14T23:43:38.010Z,101789.29
2018-02-14T23:46:05.466Z,101790.13
2018-02-14T23:48:32.950Z,101790.44
2018-02-14T23:51:00.406Z,101792.61
2018-02-14T23:53:27.876Z,101789.42
2018-02-14T23:55:55.386Z,101791.94
2018-02-14T23:58:22.843Z,101787.28
